createdAt,value
2019-04-16T00:01:06.832Z,12.08
2019-04-16T00:03:36.068Z,12.04
2019-04-16T00:06:10.437Z,12.00
2019-04-16T00:08:46.952Z,11.97
2019-04-16T00:11:25.193Z,11.92
2019-04-16T00:14:02.962Z,11.85
2019-04-16T00:16:30.041Z,11.80
2019-04-16T00:19:01.063Z,11.76
2019-04-16T00:21:48.992Z,11.71
2019-04-16T00:24:30.869Z,11.68
2019-04-16T00:26:59.888Z,11.62
2019-04-16T00:29:32.703Z,11.59
2019-04-16T00:32:00.670Z,11.58
2019-04-16T00:34:28.029Z,11.58
2019-04-16T00:36:55.686Z,11.57
2019-04-16T00:39:24.836Z,11.54
2019-04-16T00:41:52.702Z,11.52
2019-04-16T00:44:20.071Z,11.49
2019-04-16T00:46:47.615Z,11.45
2019-04-16T00:49:15.230Z,11.43
2019-04-16T00:51:42.765Z,11.41
2019-04-16T00:54:12.820Z,11.38
2019-04-16T00:56:40.534Z,11.34
2019-04-16T00:59:11.660Z,11.33
2019-04-16T01:01:39.527Z,11.31
2019-04-16T01:04:07.132Z,11.29
2019-04-16T01:06:34.811Z,11.29
2019-04-16T01:09:03.900Z,11.27
2019-04-16T01:11:33.173Z,11.26
2019-04-16T01:14:00.928Z,11.25
2019-04-16T01:16:30.281Z,11.25
2019-04-16T01:18:57.674Z,11.26
2019-04-16T01:21:25.508Z,11.25
2019-04-16T01:23:53.228Z,11.25
2019-04-16T01:26:20.636Z,11.25
2019-04-16T01:29:03.699Z,11.25
2019-04-16T01:31:45.038Z,11.26
2019-04-16T01:34:32.720Z,11.26
2019-04-16T01:37:12.546Z,11.25
2019-04-16T01:39:40.803Z,11.21
2019-04-16T01:42:10.471Z,11.21
2019-04-16T01:44:37.963Z,11.22
2019-04-16T01:47:05.597Z,11.23
2019-04-16T01:49:32.950Z,11.23
2019-04-16T01:52:00.367Z,11.22
2019-04-16T01:54:34.324Z,11.21
2019-04-16T01:57:08.500Z,11.22
2019-04-16T01:59:36.468Z,11.18
2019-04-16T02:02:04.290Z,11.13
2019-04-16T02:04:32.661Z,11.11
2019-04-16T02:07:00.088Z,11.07
2019-04-16T02:09:27.456Z,11.06
2019-04-16T02:11:55.050Z,11.04
2019-04-16T02:14:22.615Z,11.02
2019-04-16T02:16:55.685Z,11.01
2019-04-16T02:19:20.824Z,10.99
2019-04-16T02:21:48.349Z,10.94
2019-04-16T02:24:18.537Z,10.91
2019-04-16T02:26:45.312Z,10.88
2019-04-16T02:29:13.303Z,10.85
2019-04-16T02:31:40.925Z,10.82
2019-04-16T02:34:08.758Z,10.77
2019-04-16T02:36:36.254Z,10.76
2019-04-16T02:39:07.690Z,10.75
2019-04-16T02:41:35.777Z,10.73
2019-04-16T02:44:04.726Z,10.68
2019-04-16T02:46:39.616Z,10.65
2019-04-16T02:49:07.134Z,10.63
2019-04-16T02:51:55.389Z,10.60
2019-04-16T02:54:45.664Z,10.59
2019-04-16T02:57:38.775Z,10.58
2019-04-16T03:00:18.540Z,10.56
2019-04-16T03:02:54.616Z,10.53
2019-04-16T03:05:26.561Z,10.50
2019-04-16T03:07:55.630Z,10.46
2019-04-16T03:10:24.081Z,10.45
2019-04-16T03:12:52.901Z,10.45
2019-04-16T03:15:49.106Z,10.44
2019-04-16T03:18:18.705Z,10.41
2019-04-16T03:20:46.152Z,10.36
2019-04-16T03:23:13.597Z,10.35
2019-04-16T03:25:44.132Z,10.34
2019-04-16T03:28:11.042Z,10.31
2019-04-16T03:30:42.175Z,10.26
2019-04-16T03:33:12.711Z,10.20
2019-04-16T03:35:37.200Z,10.18
2019-04-16T03:38:06.187Z,10.16
2019-04-16T03:40:33.808Z,10.12
2019-04-16T03:43:04.011Z,10.09
2019-04-16T03:45:30.690Z,10.06
2019-04-16T03:47:58.128Z,10.06
2019-04-16T03:50:28.279Z,10.05
2019-04-16T03:52:55.237Z,10.02
2019-04-16T03:55:26.309Z,9.96
2019-04-16T03:57:52.572Z,9.90
2019-04-16T04:00:20.760Z,9.87
2019-04-16T04:02:48.539Z,9.85
2019-04-16T04:05:15.956Z,9.81
2019-04-16T04:07:44.118Z,9.79
2019-04-16T04:10:13.904Z,9.76
2019-04-16T04:12:51.434Z,9.74
2019-04-16T04:15:19.295Z,9.71
2019-04-16T04:17:47.297Z,9.70
2019-04-16T04:20:18.136Z,9.64
2019-04-16T04:22:44.946Z,9.64
2019-04-16T04:25:18.134Z,9.63
2019-04-16T04:27:46.791Z,9.62
2019-04-16T04:30:16.903Z,9.63
2019-04-16T04:32:47.367Z,9.62
2019-04-16T04:35:13.696Z,9.61
2019-04-16T04:37:41.150Z,9.58
2019-04-16T04:40:12.953Z,9.54
2019-04-16T04:42:41.166Z,9.52
2019-04-16T04:45:10.572Z,9.49
2019-04-16T04:47:38.628Z,9.44
2019-04-16T04:50:07.206Z,9.39
2019-04-16T04:52:34.888Z,9.39
2019-04-16T04:55:02.623Z,9.39
2019-04-16T04:57:31.135Z,9.37
2019-04-16T04:59:59.378Z,9.38
2019-04-16T05:02:27.043Z,9.40
2019-04-16T05:05:16.419Z,9.44
2019-04-16T05:07:43.892Z,9.46
2019-04-16T05:10:12.093Z,9.47
2019-04-16T05:12:39.488Z,9.47
2019-04-16T05:15:07.800Z,9.50
2019-04-16T05:17:35.453Z,9.50
2019-04-16T05:20:05.443Z,9.52
2019-04-16T05:22:33.262Z,9.53
2019-04-16T05:25:02.341Z,9.54
2019-04-16T05:27:29.881Z,9.57
2019-04-16T05:29:57.900Z,9.60
2019-04-16T05:32:25.976Z,9.64
2019-04-16T05:34:53.858Z,9.69
2019-04-16T05:37:21.384Z,9.74
2019-04-16T05:39:48.962Z,9.79
2019-04-16T05:42:16.359Z,9.87
2019-04-16T05:44:44.137Z,9.91
2019-04-16T05:47:16.870Z,9.94
2019-04-16T05:49:41.294Z,10.00
2019-04-16T05:52:08.694Z,10.06
2019-04-16T05:55:01.220Z,10.11
2019-04-16T05:57:30.525Z,10.18
2019-04-16T05:59:58.004Z,10.22
2019-04-16T06:02:36.850Z,10.25
2019-04-16T06:05:04.932Z,10.35
2019-04-16T06:07:32.342Z,10.42
2019-04-16T06:09:59.936Z,10.49
2019-04-16T06:12:39.602Z,10.56
2019-04-16T06:15:26.438Z,10.63
2019-04-16T06:18:37.069Z,10.73
2019-04-16T06:21:22.608Z,10.84
2019-04-16T06:24:03.054Z,10.94
2019-04-16T06:26:44.502Z,11.08
2019-04-16T06:29:20.608Z,11.17
2019-04-16T06:31:58.826Z,11.27
2019-04-16T06:34:45.910Z,11.40
2019-04-16T06:37:21.595Z,11.54
2019-04-16T06:40:04.521Z,11.69
2019-04-16T06:42:38.368Z,11.83
2019-04-16T06:45:15.789Z,11.99
2019-04-16T06:48:14.821Z,12.15
2019-04-16T06:51:20.179Z,12.27
2019-04-16T06:54:19.219Z,12.41
2019-04-16T06:56:58.285Z,12.55
2019-04-16T06:59:31.835Z,12.71
2019-04-16T07:02:28.053Z,12.87
2019-04-16T07:05:10.160Z,13.01
2019-04-16T07:07:56.027Z,13.22
2019-04-16T07:10:28.641Z,13.43
2019-04-16T07:12:56.155Z,13.64
2019-04-16T07:15:27.858Z,13.82
2019-04-16T07:17:53.424Z,14.01
2019-04-16T07:20:20.948Z,14.19
2019-04-16T07:22:52.737Z,14.39
2019-04-16T07:25:18.573Z,14.61
2019-04-16T07:27:58.045Z,14.81
2019-04-16T07:30:35.519Z,15.03
2019-04-16T07:33:12.379Z,15.30
2019-04-16T07:36:08.341Z,15.54
2019-04-16T07:38:59.503Z,15.78
2019-04-16T07:41:47.350Z,16.02
2019-04-16T07:44:20.146Z,16.24
2019-04-16T07:46:57.602Z,16.45
2019-04-16T07:49:47.782Z,16.70
2019-04-16T07:52:21.229Z,16.96
2019-04-16T07:55:06.989Z,17.23
2019-04-16T07:57:34.544Z,17.45
2019-04-16T08:00:08.210Z,17.71
2019-04-16T08:02:32.506Z,17.94
2019-04-16T08:04:59.965Z,18.17
2019-04-16T08:07:27.762Z,18.38
2019-04-16T08:09:55.183Z,18.65
2019-04-16T08:12:30.429Z,18.96
2019-04-16T08:14:51.906Z,19.26
2019-04-16T08:17:19.791Z,19.55
2019-04-16T08:19:49.059Z,19.85
2019-04-16T08:22:16.728Z,20.15
2019-04-16T08:24:49.658Z,20.52
2019-04-16T08:27:19.042Z,20.87
2019-04-16T08:29:46.360Z,21.21
2019-04-16T08:32:15.981Z,21.53
2019-04-16T08:34:43.966Z,21.82
2019-04-16T08:37:12.505Z,22.12
2019-04-16T08:39:40.575Z,22.38
2019-04-16T08:42:08.215Z,22.60
2019-04-16T08:44:36.471Z,22.81
2019-04-16T08:47:04.000Z,23.02
2019-04-16T08:49:31.497Z,23.24
2019-04-16T08:51:59.241Z,23.42
2019-04-16T08:54:26.753Z,23.59
2019-04-16T08:56:54.201Z,23.83
2019-04-16T08:59:21.600Z,24.08
2019-04-16T09:02:08.754Z,24.35
2019-04-16T09:04:36.175Z,24.59
2019-04-16T09:07:11.123Z,24.89
2019-04-16T09:09:57.131Z,25.12
2019-04-16T09:12:22.830Z,25.34
2019-04-16T09:14:55.987Z,25.60
2019-04-16T09:17:23.806Z,25.82
2019-04-16T09:20:08.565Z,26.09
2019-04-16T09:22:48.096Z,26.40
2019-04-16T09:25:14.234Z,26.67
2019-04-16T09:27:44.286Z,26.94
2019-04-16T09:30:42.393Z,27.29
2019-04-16T09:33:24.382Z,27.59
2019-04-16T09:36:11.487Z,27.96
2019-04-16T09:38:47.254Z,28.18
2019-04-16T09:41:24.916Z,28.34
2019-04-16T09:43:57.170Z,28.58
2019-04-16T09:46:49.170Z,28.84
2019-04-16T09:48:53.008Z,29.00
2019-04-16T09:51:21.597Z,28.87
2019-04-16T09:53:49.238Z,28.88
2019-04-16T09:56:29.021Z,28.94
2019-04-16T09:59:05.999Z,28.79
2019-04-16T10:01:42.162Z,28.80
2019-04-16T10:04:12.027Z,28.82
2019-04-16T10:06:42.560Z,28.38
2019-04-16T10:09:10.290Z,27.93
2019-04-16T10:11:37.818Z,27.70
2019-04-16T10:14:05.822Z,27.86
2019-04-16T10:16:33.529Z,27.88
2019-04-16T10:19:01.152Z,27.97
2019-04-16T10:21:29.381Z,28.05
2019-04-16T10:24:29.246Z,28.38
2019-04-16T10:26:59.920Z,28.49
2019-04-16T10:29:27.325Z,28.63
2019-04-16T10:31:55.132Z,28.39
2019-04-16T10:34:22.730Z,28.38
2019-04-16T10:36:50.410Z,28.10
2019-04-16T10:39:36.326Z,28.01
2019-04-16T10:42:22.575Z,28.07
2019-04-16T10:45:11.965Z,28.29
2019-04-16T10:48:14.185Z,28.42
2019-04-16T10:50:59.787Z,28.63
2019-04-16T10:53:43.466Z,28.91
2019-04-16T10:56:30.284Z,29.14
2019-04-16T10:59:16.174Z,29.03
2019-04-16T11:01:49.267Z,29.04
2019-04-16T11:04:23.163Z,29.17
2019-04-16T11:06:51.473Z,29.41
2019-04-16T11:09:19.084Z,29.67
2019-04-16T11:11:46.807Z,29.88
2019-04-16T11:14:17.181Z,30.13
2019-04-16T11:16:48.777Z,30.41
2019-04-16T11:19:16.298Z,30.49
2019-04-16T11:21:44.326Z,30.59
2019-04-16T11:24:12.013Z,30.77
2019-04-16T11:26:40.203Z,31.01
2019-04-16T11:29:07.845Z,31.15
2019-04-16T11:31:35.693Z,31.15
2019-04-16T11:34:06.527Z,31.15
2019-04-16T11:36:35.316Z,31.05
2019-04-16T11:39:05.429Z,31.02
2019-04-16T11:41:33.482Z,31.14
2019-04-16T11:44:14.195Z,31.16
2019-04-16T11:46:30.688Z,30.85
2019-04-16T11:48:58.184Z,30.55
2019-04-16T11:51:25.706Z,30.43
2019-04-16T11:53:53.216Z,30.21
2019-04-16T11:56:22.527Z,30.15
2019-04-16T11:58:50.260Z,30.09
2019-04-16T12:01:40.446Z,30.03
2019-04-16T12:04:34.217Z,30.06
2019-04-16T12:07:10.029Z,29.89
2019-04-16T12:09:56.051Z,29.85
2019-04-16T12:12:27.880Z,29.64
2019-04-16T12:15:07.892Z,29.56
2019-04-16T12:17:53.806Z,29.48
2019-04-16T12:20:40.966Z,29.42
2019-04-16T12:23:30.791Z,29.34
2019-04-16T12:26:18.874Z,29.31
2019-04-16T12:29:02.090Z,29.32
2019-04-16T12:31:41.596Z,29.27
2019-04-16T12:34:34.709Z,29.29
2019-04-16T12:37:21.776Z,29.31
2019-04-16T12:40:07.189Z,29.28
2019-04-16T12:42:42.204Z,29.22
2019-04-16T12:45:29.648Z,29.30
2019-04-16T12:48:02.245Z,29.44
2019-04-16T12:50:47.584Z,29.59
2019-04-16T12:53:53.045Z,29.67
2019-04-16T12:56:40.101Z,29.79
2019-04-16T12:59:11.864Z,29.83
2019-04-16T13:01:58.079Z,29.96
2019-04-16T13:04:48.727Z,30.08
2019-04-16T13:07:22.646Z,29.95
2019-04-16T13:10:04.342Z,29.80
2019-04-16T13:12:50.131Z,29.61
2019-04-16T13:15:26.630Z,29.45
2019-04-16T13:18:24.435Z,29.44
2019-04-16T13:21:10.195Z,29.44
2019-04-16T13:23:41.226Z,29.49
2019-04-16T13:26:27.410Z,29.52
2019-04-16T13:28:56.154Z,29.54
2019-04-16T13:31:24.023Z,29.47
2019-04-16T13:33:51.481Z,29.38
2019-04-16T13:36:19.499Z,29.31
2019-04-16T13:38:52.650Z,29.24
2019-04-16T13:41:20.165Z,29.01
2019-04-16T13:43:51.782Z,28.79
2019-04-16T13:46:19.398Z,28.65
2019-04-16T13:49:05.276Z,28.41
2019-04-16T13:51:33.241Z,28.16
2019-04-16T13:54:20.551Z,27.90
2019-04-16T13:56:53.392Z,27.78
2019-04-16T13:59:46.395Z,27.67
2019-04-16T14:02:29.088Z,27.61
2019-04-16T14:05:03.050Z,27.49
2019-04-16T14:07:27.946Z,27.34
2019-04-16T14:09:55.278Z,27.21
2019-04-16T14:12:33.862Z,27.09
2019-04-16T14:14:52.512Z,26.93
2019-04-16T14:17:23.577Z,26.78
2019-04-16T14:19:50.942Z,26.65
2019-04-16T14:22:21.635Z,26.55
2019-04-16T14:24:47.760Z,26.42
2019-04-16T14:27:15.272Z,26.27
2019-04-16T14:29:42.758Z,26.06
2019-04-16T14:32:10.549Z,25.93
2019-04-16T14:34:44.548Z,25.86
2019-04-16T14:37:12.100Z,25.78
2019-04-16T14:39:43.249Z,25.71
2019-04-16T14:42:10.903Z,25.64
2019-04-16T14:44:46.986Z,25.57
2019-04-16T14:47:15.116Z,25.49
2019-04-16T14:49:42.613Z,25.41
2019-04-16T14:52:10.015Z,25.36
2019-04-16T14:54:46.114Z,25.28
2019-04-16T14:57:13.553Z,25.12
2019-04-16T14:59:51.711Z,24.98
2019-04-16T15:02:33.376Z,24.88
2019-04-16T15:05:25.556Z,24.74
2019-04-16T15:08:18.237Z,24.53
2019-04-16T15:11:10.163Z,24.35
2019-04-16T15:13:43.352Z,24.17
2019-04-16T15:16:29.186Z,24.00
2019-04-16T15:19:15.052Z,23.85
2019-04-16T15:22:00.666Z,23.71
2019-04-16T15:24:39.926Z,23.60
2019-04-16T15:27:31.522Z,23.51
2019-04-16T15:30:05.233Z,23.38
2019-04-16T15:33:06.761Z,23.19
2019-04-16T15:35:38.165Z,22.95
2019-04-16T15:38:29.611Z,22.73
2019-04-16T15:41:12.096Z,22.67
2019-04-16T15:43:57.824Z,22.57
2019-04-16T15:46:45.566Z,22.46
2019-04-16T15:49:19.431Z,22.34
2019-04-16T15:51:58.822Z,22.29
2019-04-16T15:54:45.910Z,22.26
2019-04-16T15:57:38.294Z,22.22
2019-04-16T16:00:17.619Z,22.13
2019-04-16T16:03:13.842Z,22.05
2019-04-16T16:05:45.235Z,21.94
2019-04-16T16:08:41.333Z,21.85
2019-04-16T16:11:17.186Z,21.77
2019-04-16T16:13:45.007Z,21.69
2019-04-16T16:16:17.658Z,21.62
2019-04-16T16:18:43.847Z,21.55
2019-04-16T16:21:11.485Z,21.48
2019-04-16T16:23:38.940Z,21.39
2019-04-16T16:26:06.672Z,21.32
2019-04-16T16:28:34.043Z,21.26
2019-04-16T16:31:01.560Z,21.19
2019-04-16T16:33:30.019Z,21.13
2019-04-16T16:35:59.834Z,21.06
2019-04-16T16:38:27.529Z,21.00
2019-04-16T16:40:55.180Z,20.96
2019-04-16T16:43:22.580Z,20.92
2019-04-16T16:46:21.674Z,20.86
2019-04-16T16:48:51.014Z,20.80
2019-04-16T16:51:18.652Z,20.74
2019-04-16T16:53:53.842Z,20.68
2019-04-16T16:56:26.846Z,20.63
2019-04-16T16:59:08.241Z,20.56
2019-04-16T17:01:54.527Z,20.49
2019-04-16T17:04:28.458Z,20.43
2019-04-16T17:06:56.030Z,20.35
2019-04-16T17:09:30.204Z,20.29
2019-04-16T17:11:59.039Z,20.25
2019-04-16T17:14:27.848Z,20.20
2019-04-16T17:16:55.566Z,20.15
2019-04-16T17:19:24.260Z,20.10
2019-04-16T17:21:51.793Z,20.06
2019-04-16T17:24:19.196Z,20.03
2019-04-16T17:26:49.927Z,20.00
2019-04-16T17:29:16.619Z,19.96
2019-04-16T17:31:44.171Z,19.90
2019-04-16T17:34:13.712Z,19.84
2019-04-16T17:36:41.325Z,19.73
2019-04-16T17:39:10.731Z,19.64
2019-04-16T17:41:48.114Z,19.56
2019-04-16T17:44:34.112Z,19.50
2019-04-16T17:47:31.977Z,19.43
2019-04-16T17:50:06.995Z,19.37
2019-04-16T17:52:40.672Z,19.30
2019-04-16T17:55:34.061Z,19.25
2019-04-16T17:58:19.896Z,19.21
2019-04-16T18:01:17.804Z,19.15
2019-04-16T18:04:03.114Z,19.08
2019-04-16T18:06:53.129Z,18.97
2019-04-16T18:09:29.243Z,18.88
2019-04-16T18:12:16.938Z,18.82
2019-04-16T18:15:08.859Z,18.76
2019-04-16T18:17:47.240Z,18.69
2019-04-16T18:20:27.484Z,18.60
2019-04-16T18:23:02.050Z,18.54
2019-04-16T18:26:01.394Z,18.49
2019-04-16T18:28:34.172Z,18.42
2019-04-16T18:31:24.295Z,18.34
2019-04-16T18:33:56.357Z,18.28
2019-04-16T18:36:33.859Z,18.21
2019-04-16T18:39:27.188Z,18.17
2019-04-16T18:42:07.781Z,18.11
2019-04-16T18:44:56.291Z,18.03
2019-04-16T18:48:03.015Z,17.98
2019-04-16T18:50:27.740Z,17.90
2019-04-16T18:52:53.571Z,17.81
2019-04-16T18:55:21.067Z,17.73
2019-04-16T18:57:48.836Z,17.63
2019-04-16T19:00:35.776Z,17.51
2019-04-16T19:03:03.798Z,17.39
2019-04-16T19:05:31.901Z,17.31
2019-04-16T19:08:00.849Z,17.24
2019-04-16T19:10:28.781Z,17.17
2019-04-16T19:12:56.571Z,17.13
2019-04-16T19:15:24.124Z,17.09
2019-04-16T19:17:52.495Z,17.03
2019-04-16T19:20:20.025Z,16.99
2019-04-16T19:22:49.775Z,16.93
2019-04-16T19:25:17.715Z,16.87
2019-04-16T19:27:48.762Z,16.76
2019-04-16T19:30:14.775Z,16.66
2019-04-16T19:32:42.257Z,16.59
2019-04-16T19:35:16.503Z,16.54
2019-04-16T19:37:40.159Z,16.47
2019-04-16T19:40:07.964Z,16.41
2019-04-16T19:42:35.516Z,16.37
2019-04-16T19:45:03.241Z,16.37
2019-04-16T19:47:35.169Z,16.32
2019-04-16T19:50:01.938Z,16.30
2019-04-16T19:52:29.590Z,16.26
2019-04-16T19:54:57.279Z,16.24
2019-04-16T19:57:25.491Z,16.22
2019-04-16T19:59:53.142Z,16.20
2019-04-16T20:02:20.804Z,16.18
2019-04-16T20:04:50.894Z,16.17
2019-04-16T20:07:18.595Z,16.18
2019-04-16T20:09:46.432Z,16.16
2019-04-16T20:12:13.790Z,16.16
2019-04-16T20:14:41.264Z,16.16
2019-04-16T20:17:08.880Z,16.15
2019-04-16T20:19:55.681Z,16.14
2019-04-16T20:22:23.321Z,16.13
2019-04-16T20:24:50.724Z,16.10
2019-04-16T20:27:19.709Z,16.06
2019-04-16T20:29:48.533Z,16.01
2019-04-16T20:32:16.002Z,15.97
2019-04-16T20:34:45.257Z,15.94
2019-04-16T20:37:12.989Z,15.90
2019-04-16T20:39:41.079Z,15.88
2019-04-16T20:42:08.407Z,15.87
2019-04-16T20:44:36.238Z,15.86
2019-04-16T20:47:07.988Z,15.86
2019-04-16T20:49:33.757Z,15.83
2019-04-16T20:52:02.341Z,15.82
2019-04-16T20:54:31.643Z,15.80
2019-04-16T20:56:59.226Z,15.76
2019-04-16T20:59:26.762Z,15.74
2019-04-16T21:01:54.221Z,15.70
2019-04-16T21:04:21.934Z,15.70
2019-04-16T21:06:49.647Z,15.67
2019-04-16T21:09:17.192Z,15.65
2019-04-16T21:11:44.656Z,15.62
2019-04-16T21:14:12.084Z,15.60
2019-04-16T21:16:39.550Z,15.57
2019-04-16T21:19:21.599Z,15.56
2019-04-16T21:21:38.188Z,15.50
2019-04-16T21:24:07.793Z,15.46
2019-04-16T21:26:35.273Z,15.44
2019-04-16T21:29:08.219Z,15.41
2019-04-16T21:31:42.290Z,15.39
2019-04-16T21:34:38.921Z,15.36
2019-04-16T21:37:17.263Z,15.33
2019-04-16T21:39:52.126Z,15.32
2019-04-16T21:42:22.633Z,15.29
2019-04-16T21:44:50.148Z,15.29
2019-04-16T21:47:23.131Z,15.28
2019-04-16T21:49:47.543Z,15.25
2019-04-16T21:52:15.339Z,15.22
2019-04-16T21:54:43.077Z,15.21
2019-04-16T21:57:13.527Z,15.18
2019-04-16T21:59:40.267Z,15.16
2019-04-16T22:02:15.252Z,15.13
2019-04-16T22:28:11.024Z,14.69
2019-04-16T22:30:35.149Z,14.64
2019-04-16T22:33:06.389Z,14.65
2019-04-16T22:35:32.236Z,14.67
2019-04-16T22:38:00.089Z,14.69
2019-04-16T22:40:47.481Z,14.71
2019-04-16T22:43:43.421Z,14.73
2019-04-16T22:46:33.612Z,14.72
2019-04-16T22:49:01.207Z,14.70
2019-04-16T22:51:28.761Z,14.72
2019-04-16T22:53:56.569Z,14.71
2019-04-16T22:56:33.287Z,14.72
2019-04-16T22:59:00.668Z,14.72
2019-04-16T23:01:30.481Z,14.72
2019-04-16T23:03:58.440Z,14.72
2019-04-16T23:06:25.922Z,14.72
2019-04-16T23:08:53.290Z,14.71
2019-04-16T23:11:23.660Z,14.71
2019-04-16T23:59:51.255Z,14.11
